Time;durP1;ratioP1;P1;durP2;ratioP2;P2;SDS_P1;SDS_P2;PMS_P1;PMS_P2;Temp;Humidity;BMP_temperature;BMP_pressure;BME280_temperature;BME280_humidity;BME280_pressure;Samples;Min_cycle;Max_cycle;Signal;HPM_P1;HPM_P2
2023/07/25 00:02:23;;;;;;;3.30;2.78;;;18.30;99.90;;;;;;5005341;28;20571;-73
2023/07/25 00:04:48;;;;;;;3.75;2.95;;;18.30;99.90;;;;;;5021005;28;20189;-74
2023/07/25 00:07:14;;;;;;;3.13;2.83;;;18.20;99.90;;;;;;5004433;28;20225;-73
2023/07/25 00:09:39;;;;;;;5.57;3.20;;;18.20;99.90;;;;;;5004354;28;20213;-73
2023/07/25 00:12:05;;;;;;;5.70;3.08;;;18.20;99.90;;;;;;5004725;28;20201;-74
2023/07/25 00:14:32;;;;;;;5.55;3.00;;;18.20;99.90;;;;;;5002273;28;20309;-73
2023/07/25 00:16:58;;;;;;;4.13;2.95;;;18.20;99.90;;;;;;5003767;28;20212;-74
2023/07/25 00:19:23;;;;;;;6.40;3.17;;;18.20;99.90;;;;;;4998459;28;20346;-73
2023/07/25 00:21:49;;;;;;;3.92;3.17;;;18.10;99.90;;;;;;5002906;28;20223;-73
2023/07/25 00:24:14;;;;;;;3.30;2.80;;;18.10;99.90;;;;;;5010525;28;20671;-73
2023/07/25 00:26:40;;;;;;;3.35;2.90;;;18.10;99.90;;;;;;5008208;28;20663;-74
2023/07/25 00:29:05;;;;;;;4.13;3.00;;;18.10;99.90;;;;;;5009210;28;20208;-73
2023/07/25 00:31:31;;;;;;;5.60;2.90;;;18.00;99.90;;;;;;5022030;28;20200;-74
2023/07/25 00:33:56;;;;;;;3.75;3.30;;;17.90;99.90;;;;;;5007391;28;20264;-73
2023/07/25 00:36:22;;;;;;;3.72;3.15;;;17.90;99.90;;;;;;5006248;28;20271;-73
2023/07/25 00:38:47;;;;;;;6.25;3.20;;;18.00;99.90;;;;;;5006041;28;20698;-73
2023/07/25 00:41:13;;;;;;;3.88;3.10;;;17.90;99.90;;;;;;5005210;28;20228;-73
2023/07/25 00:43:38;;;;;;;6.80;3.90;;;17.90;99.90;;;;;;5004409;28;20196;-73
2023/07/25 00:46:05;;;;;;;8.32;3.47;;;17.90;99.90;;;;;;5005029;28;20660;-73
2023/07/25 00:48:31;;;;;;;4.22;3.22;;;17.80;99.90;;;;;;5001681;28;20609;-74
2023/07/25 00:50:57;;;;;;;4.35;2.88;;;17.90;99.90;;;;;;5018682;28;20702;-74
2023/07/25 00:53:25;;;;;;;3.58;3.25;;;17.90;99.90;;;;;;5000371;28;20221;-74
2023/07/25 00:55:50;;;;;;;5.53;3.60;;;17.90;99.90;;;;;;5001236;28;20197;-73
2023/07/25 00:58:17;;;;;;;5.10;3.45;;;17.90;99.90;;;;;;5002870;28;20385;-74
2023/07/25 01:00:44;;;;;;;4.30;3.67;;;17.90;99.90;;;;;;5009368;28;20216;-73
2023/07/25 01:03:10;;;;;;;4.40;3.58;;;17.90;99.90;;;;;;5009198;28;20718;-73
2023/07/25 01:05:41;;;;;;;6.05;3.60;;;17.80;99.90;;;;;;5006011;28;20224;-73
2023/07/25 01:08:07;;;;;;;5.60;3.50;;;17.90;99.90;;;;;;5006076;28;20209;-72
2023/07/25 01:10:34;;;;;;;7.85;3.95;;;17.80;99.90;;;;;;5010500;28;20192;-74
2023/07/25 01:13:00;;;;;;;5.05;3.05;;;17.80;99.90;;;;;;5006702;28;20422;-74
2023/07/25 01:15:28;;;;;;;3.63;3.00;;;17.80;99.90;;;;;;5004722;28;20327;-74
2023/07/25 01:17:54;;;;;;;5.72;3.30;;;17.80;99.90;;;;;;5004310;28;20251;-73
2023/07/25 01:20:19;;;;;;;5.93;3.65;;;17.60;99.90;;;;;;5002314;28;20256;-75
2023/07/25 01:22:46;;;;;;;5.97;4.05;;;17.60;99.90;;;;;;5003062;28;20189;-73
2023/07/25 01:25:14;;;;;;;7.05;3.42;;;17.60;99.90;;;;;;5018035;28;20236;-73
2023/07/25 01:27:39;;;;;;;5.65;3.45;;;17.60;99.90;;;;;;5001275;28;20772;-73
2023/07/25 01:30:06;;;;;;;7.25;3.90;;;17.60;99.90;;;;;;5017216;28;20303;-74
2023/07/25 01:32:32;;;;;;;6.10;3.85;;;17.60;99.90;;;;;;4997793;28;20221;-74
2023/07/25 01:34:58;;;;;;;5.40;3.92;;;17.60;99.90;;;;;;5013513;28;20789;-74
2023/07/25 01:37:23;;;;;;;5.63;3.67;;;17.50;99.90;;;;;;5009403;28;20181;-74
2023/07/25 01:39:49;;;;;;;5.07;4.13;;;17.50;99.90;;;;;;5007487;28;20605;-74
2023/07/25 01:42:15;;;;;;;5.18;3.80;;;17.40;99.90;;;;;;5008297;28;20595;-74
2023/07/25 01:44:41;;;;;;;5.53;3.97;;;17.40;99.90;;;;;;5005420;28;20657;-73
2023/07/25 01:47:06;;;;;;;4.63;4.10;;;17.50;99.90;;;;;;5009932;28;20193;-73
2023/07/25 01:49:32;;;;;;;5.20;3.75;;;17.60;99.90;;;;;;5004664;28;20223;-73
2023/07/25 01:51:57;;;;;;;7.50;4.38;;;17.70;99.90;;;;;;5005389;28;20208;-74
2023/07/25 01:54:23;;;;;;;7.70;3.70;;;17.70;99.90;;;;;;5019401;28;20335;-74
2023/07/25 01:56:49;;;;;;;4.80;3.88;;;17.70;99.90;;;;;;5003299;28;20231;-74
2023/07/25 01:59:14;;;;;;;6.00;4.65;;;17.70;99.90;;;;;;5003407;28;20723;-73
2023/07/25 02:01:40;;;;;;;7.50;4.55;;;17.70;99.90;;;;;;5001369;28;20846;-74
2023/07/25 02:04:05;;;;;;;7.35;5.35;;;17.80;99.90;;;;;;5002915;28;20209;-73
2023/07/25 02:06:31;;;;;;;7.45;4.55;;;17.80;99.90;;;;;;4998662;28;20745;-73
2023/07/25 02:08:57;;;;;;;7.50;4.93;;;17.60;99.90;;;;;;5015511;28;20284;-73
2023/07/25 02:11:22;;;;;;;9.73;4.75;;;17.70;99.90;;;;;;4998389;28;20244;-72
2023/07/25 02:13:48;;;;;;;6.60;4.75;;;17.70;99.90;;;;;;5008206;28;20181;-73
2023/07/25 02:16:13;;;;;;;5.68;4.53;;;17.70;99.90;;;;;;5008225;28;20639;-73
2023/07/25 02:18:39;;;;;;;9.07;4.07;;;17.70;99.90;;;;;;5007522;28;20220;-72
2023/07/25 02:21:05;;;;;;;5.68;4.50;;;17.60;99.90;;;;;;5008039;28;20729;-72
2023/07/25 02:23:30;;;;;;;6.85;4.47;;;17.60;99.90;;;;;;5006240;28;20244;-73
2023/07/25 02:25:56;;;;;;;7.18;4.30;;;17.60;99.90;;;;;;5004717;28;20169;-72
2023/07/25 02:28:22;;;;;;;6.03;4.22;;;17.60;99.90;;;;;;5002836;28;20209;-73
2023/07/25 02:30:48;;;;;;;7.45;4.63;;;17.60;99.90;;;;;;5016100;28;20220;-75
2023/07/25 02:33:14;;;;;;;7.13;5.15;;;17.60;99.90;;;;;;5002567;28;20227;-72
2023/07/25 02:35:40;;;;;;;9.65;4.50;;;17.60;99.90;;;;;;5003271;28;20245;-74
2023/07/25 02:38:05;;;;;;;10.27;5.70;;;17.60;99.90;;;;;;5005789;28;20227;-73
2023/07/25 02:40:31;;;;;;;8.63;4.90;;;17.60;99.90;;;;;;4999793;28;20206;-75
2023/07/25 02:42:57;;;;;;;9.00;5.45;;;17.50;99.90;;;;;;5001058;28;20213;-75
2023/07/25 02:45:22;;;;;;;6.10;4.78;;;17.50;99.90;;;;;;4998312;28;20929;-75
2023/07/25 02:47:48;;;;;;;6.60;5.10;;;17.60;99.90;;;;;;4998660;28;20316;-74
2023/07/25 02:50:13;;;;;;;7.22;4.72;;;17.60;99.90;;;;;;5003580;28;20248;-73
2023/07/25 02:52:41;;;;;;;8.23;5.40;;;17.50;99.90;;;;;;5007475;28;20586;-73
2023/07/25 02:55:07;;;;;;;8.30;5.32;;;17.50;99.90;;;;;;5005498;28;20236;-74
2023/07/25 02:57:32;;;;;;;9.95;5.75;;;17.50;99.90;;;;;;5006274;28;20208;-74
2023/07/25 02:59:58;;;;;;;9.15;5.32;;;17.50;99.90;;;;;;5003592;28;20209;-72
2023/07/25 03:02:23;;;;;;;8.63;5.10;;;17.60;99.90;;;;;;5004090;28;20243;-74
2023/07/25 03:04:49;;;;;;;11.63;6.18;;;17.60;99.90;;;;;;5001494;28;20226;-75
2023/07/25 03:07:14;;;;;;;8.63;5.38;;;17.50;99.90;;;;;;5004436;28;20216;-74
2023/07/25 03:09:41;;;;;;;10.35;6.25;;;17.50;99.90;;;;;;5000205;28;20225;-73
2023/07/25 03:12:07;;;;;;;7.97;5.40;;;17.50;99.90;;;;;;5004907;28;20216;-74
2023/07/25 03:14:32;;;;;;;13.60;5.55;;;17.40;99.90;;;;;;5002451;28;20224;-74
2023/07/25 03:16:58;;;;;;;9.00;5.45;;;17.50;99.90;;;;;;5009398;28;20268;-74
2023/07/25 03:19:24;;;;;;;9.73;5.18;;;17.40;99.90;;;;;;4998669;28;20710;-72
2023/07/25 03:21:50;;;;;;;7.65;5.07;;;17.50;99.90;;;;;;5013511;28;20300;-72
2023/07/25 03:24:16;;;;;;;10.32;5.15;;;17.50;99.90;;;;;;4999722;28;20363;-74
2023/07/25 03:26:42;;;;;;;10.50;6.13;;;17.50;99.90;;;;;;5003962;28;20881;-71
2023/07/25 03:29:07;;;;;;;7.60;4.88;;;17.60;99.90;;;;;;5007267;28;20227;-73
2023/07/25 03:31:33;;;;;;;7.68;4.82;;;17.50;99.90;;;;;;5010013;28;20181;-73
2023/07/25 03:33:58;;;;;;;10.45;5.03;;;17.50;99.90;;;;;;5008098;28;20862;-72
2023/07/25 03:36:25;;;;;;;8.18;4.78;;;17.50;99.90;;;;;;5014038;28;20343;-72
2023/07/25 03:38:50;;;;;;;8.63;4.90;;;17.50;99.90;;;;;;5009934;28;20216;-72
2023/07/25 03:41:16;;;;;;;8.05;4.63;;;17.50;99.90;;;;;;5007980;28;20226;-73
2023/07/25 03:43:42;;;;;;;7.68;5.72;;;17.60;99.90;;;;;;5004049;28;20185;-71
2023/07/25 03:46:07;;;;;;;7.18;5.50;;;17.60;99.90;;;;;;5006958;28;20216;-72
2023/07/25 03:48:33;;;;;;;8.43;5.15;;;17.60;99.90;;;;;;5003643;28;20300;-73
2023/07/25 03:50:59;;;;;;;8.27;5.15;;;17.60;99.90;;;;;;5007110;28;20687;-72
2023/07/25 03:53:24;;;;;;;8.52;4.82;;;17.50;99.90;;;;;;5004123;28;20231;-72
2023/07/25 03:55:50;;;;;;;8.88;5.10;;;17.60;99.90;;;;;;5002403;28;20235;-72
2023/07/25 03:58:16;;;;;;;6.57;4.47;;;17.60;99.90;;;;;;5008361;28;20185;-72
2023/07/25 04:00:41;;;;;;;7.38;4.78;;;17.50;99.90;;;;;;4999388;28;20276;-72
2023/07/25 04:03:07;;;;;;;7.88;4.85;;;17.50;99.90;;;;;;5006287;28;20209;-72
2023/07/25 04:05:33;;;;;;;7.38;5.22;;;17.50;99.90;;;;;;5018675;28;20263;-72
2023/07/25 04:07:59;;;;;;;9.48;5.75;;;17.40;99.90;;;;;;5008898;28;20707;-73
2023/07/25 04:10:26;;;;;;;10.07;4.80;;;17.70;99.90;;;;;;5009814;28;20750;-73
2023/07/25 04:12:51;;;;;;;7.75;4.90;;;18.10;99.90;;;;;;5007918;28;20811;-71
2023/07/25 04:15:17;;;;;;;8.60;5.53;;;18.50;99.90;;;;;;5008554;28;20229;-73
2023/07/25 04:17:43;;;;;;;7.45;4.88;;;19.60;99.90;;;;;;5008731;28;20217;-73
2023/07/25 04:20:08;;;;;;;6.57;4.32;;;20.50;99.90;;;;;;5006646;28;20279;-73
2023/07/25 04:22:34;;;;;;;10.35;4.63;;;21.70;99.90;;;;;;5006048;28;20192;-74
2023/07/25 04:25:00;;;;;;;8.73;3.63;;;22.70;99.90;;;;;;5004122;28;20260;-72
2023/07/25 04:27:25;;;;;;;6.60;3.47;;;23.70;99.90;;;;;;5005201;28;20315;-74
2023/07/25 04:29:51;;;;;;;8.15;3.70;;;22.80;99.90;;;;;;5001049;28;20601;-72
2023/07/25 04:32:16;;;;;;;8.88;4.38;;;21.90;99.90;;;;;;5004013;28;20270;-72
2023/07/25 04:34:42;;;;;;;6.10;4.00;;;21.10;99.90;;;;;;5006406;28;20265;-73
2023/07/25 04:37:08;;;;;;;7.68;4.50;;;20.20;99.90;;;;;;5003720;28;20209;-73
2023/07/25 04:39:33;;;;;;;6.55;4.32;;;19.80;99.90;;;;;;5002520;28;20217;-73
2023/07/25 04:41:59;;;;;;;8.75;5.15;;;19.20;99.90;;;;;;5022409;28;20348;-72
2023/07/25 04:44:24;;;;;;;10.15;4.43;;;18.90;99.90;;;;;;5007293;28;20213;-73
2023/07/25 04:46:50;;;;;;;8.43;4.30;;;18.60;99.90;;;;;;5022481;28;20208;-72
2023/07/25 04:49:16;;;;;;;7.65;4.15;;;18.50;99.90;;;;;;5008579;28;20208;-73
2023/07/25 04:51:42;;;;;;;10.88;4.53;;;18.40;99.90;;;;;;5006751;28;20208;-72
2023/07/25 04:54:08;;;;;;;10.30;4.75;;;18.30;99.90;;;;;;5006312;28;20209;-72
2023/07/25 04:56:34;;;;;;;9.45;5.05;;;18.20;99.90;;;;;;5006437;28;20224;-72
2023/07/25 04:58:59;;;;;;;10.65;5.38;;;18.20;99.90;;;;;;5004337;28;20206;-71
2023/07/25 05:01:25;;;;;;;14.52;4.95;;;18.00;99.90;;;;;;5003987;28;20181;-72
2023/07/25 05:03:51;;;;;;;9.10;5.75;;;18.00;99.90;;;;;;5000234;28;20312;-71
2023/07/25 05:06:16;;;;;;;9.30;5.00;;;18.10;99.90;;;;;;5003073;28;20323;-74
2023/07/25 05:08:42;;;;;;;8.90;4.68;;;18.10;99.90;;;;;;5015743;28;20216;-75
2023/07/25 05:11:07;;;;;;;8.57;4.65;;;18.00;99.90;;;;;;5001527;28;20685;-75
2023/07/25 05:13:33;;;;;;;5.90;4.72;;;18.10;99.90;;;;;;5000391;28;20189;-74
2023/07/25 05:15:59;;;;;;;12.60;4.47;;;18.20;99.90;;;;;;5002315;28;20291;-74
2023/07/25 05:18:24;;;;;;;12.13;5.28;;;18.20;99.90;;;;;;5009759;28;20703;-74
2023/07/25 05:20:50;;;;;;;10.15;4.80;;;18.30;99.90;;;;;;5006872;28;20256;-75
2023/07/25 05:23:15;;;;;;;9.18;3.80;;;19.10;99.90;;;;;;5002832;28;20267;-74
2023/07/25 05:25:43;;;;;;;7.32;3.85;;;19.90;99.90;;;;;;5008560;28;20177;-74
2023/07/25 05:28:08;;;;;;;10.15;5.53;;;20.30;99.90;;;;;;5005367;28;20224;-73
2023/07/25 05:30:34;;;;;;;10.27;3.70;;;20.30;99.90;;;;;;5005325;28;20296;-74
2023/07/25 05:32:59;;;;;;;7.55;2.92;;;20.70;99.90;;;;;;5001927;28;20626;-73
2023/07/25 05:35:25;;;;;;;5.65;2.97;;;20.90;99.90;;;;;;5004526;28;20219;-74
2023/07/25 05:37:50;;;;;;;3.53;2.35;;;21.30;99.90;;;;;;5019410;28;20184;-74
2023/07/25 05:40:16;;;;;;;5.15;2.90;;;21.20;99.90;;;;;;5005313;28;20247;-74
2023/07/25 05:42:42;;;;;;;6.07;3.03;;;20.80;99.90;;;;;;5006796;28;20718;-75
2023/07/25 05:45:08;;;;;;;5.03;2.58;;;20.40;99.90;;;;;;4999492;28;20253;-74
2023/07/25 05:47:33;;;;;;;8.05;3.15;;;20.10;99.90;;;;;;5000915;28;20646;-74
2023/07/25 05:49:59;;;;;;;4.90;2.65;;;20.10;99.90;;;;;;5001755;28;20205;-74
2023/07/25 05:52:24;;;;;;;8.45;2.97;;;21.40;99.90;;;;;;5008453;28;20655;-71
2023/07/25 05:54:51;;;;;;;4.65;2.10;;;23.60;99.90;;;;;;5012293;28;20205;-72
2023/07/25 05:57:16;;;;;;;4.47;2.20;;;25.10;99.90;;;;;;5008386;28;20215;-75
2023/07/25 05:59:43;;;;;;;5.13;2.50;;;24.60;99.90;;;;;;5006968;28;20296;-73
2023/07/25 06:02:09;;;;;;;4.05;2.40;;;24.50;99.90;;;;;;5019879;28;20840;-74
2023/07/25 06:04:35;;;;;;;6.10;2.58;;;24.20;99.90;;;;;;5006404;28;20173;-75
2023/07/25 06:07:00;;;;;;;5.85;2.55;;;24.00;99.90;;;;;;5003494;28;20663;-73
2023/07/25 06:09:26;;;;;;;5.05;2.25;;;23.80;99.90;;;;;;5003882;28;20204;-74
2023/07/25 06:11:53;;;;;;;4.78;2.42;;;22.80;99.90;;;;;;5002408;28;20626;-75
2023/07/25 06:14:18;;;;;;;6.75;2.75;;;22.00;99.90;;;;;;5004064;28;20208;-74
2023/07/25 06:16:44;;;;;;;4.97;2.83;;;21.40;99.90;;;;;;5001190;28;20650;-74
2023/07/25 06:19:10;;;;;;;6.85;3.00;;;21.30;99.90;;;;;;5000437;28;20205;-75
2023/07/25 06:21:36;;;;;;;6.40;2.60;;;21.10;99.90;;;;;;5001096;28;20236;-74
2023/07/25 06:24:01;;;;;;;6.00;2.13;;;21.10;99.90;;;;;;5002024;28;20293;-73
2023/07/25 06:26:27;;;;;;;6.00;2.58;;;22.30;99.90;;;;;;4999513;28;20220;-72
2023/07/25 06:28:53;;;;;;;4.85;2.03;;;24.00;99.90;;;;;;4957827;28;1117131;-74
2023/07/25 06:31:18;;;;;;;4.07;2.17;;;25.70;99.90;;;;;;5008508;28;20679;-72
2023/07/25 06:33:44;;;;;;;8.73;2.38;;;27.40;99.90;;;;;;5007283;28;20204;-73
2023/07/25 06:36:10;;;;;;;5.25;2.17;;;27.80;99.90;;;;;;5022803;28;20569;-73
2023/07/25 06:38:35;;;;;;;4.95;2.15;;;28.80;99.90;;;;;;5008845;28;20217;-73
2023/07/25 06:41:01;;;;;;;8.93;2.72;;;29.70;99.90;;;;;;5002948;28;20181;-72
2023/07/25 06:43:27;;;;;;;5.65;2.10;;;30.70;99.90;;;;;;5020635;28;20181;-72
2023/07/25 06:45:53;;;;;;;6.05;2.25;;;29.70;99.90;;;;;;5006052;28;20223;-73
2023/07/25 06:48:19;;;;;;;7.00;2.90;;;29.50;99.90;;;;;;5018605;28;20225;-72
2023/07/25 06:50:45;;;;;;;6.18;2.38;;;28.50;99.90;;;;;;5003225;28;20215;-72
2023/07/25 06:53:11;;;;;;;6.03;2.38;;;27.20;99.90;;;;;;5004073;28;20209;-74
2023/07/25 06:55:38;;;;;;;5.60;2.63;;;25.50;99.90;;;;;;5003521;28;20177;-73
2023/07/25 06:58:03;;;;;;;4.95;2.53;;;24.60;99.90;;;;;;4999087;28;20205;-72
2023/07/25 07:00:29;;;;;;;4.90;1.92;;;24.30;99.90;;;;;;5001678;28;20750;-73
2023/07/25 07:02:55;;;;;;;6.32;2.05;;;25.40;99.90;;;;;;5002109;28;20209;-73
2023/07/25 07:05:20;;;;;;;5.13;2.22;;;26.60;99.90;;;;;;5000819;28;20236;-73
2023/07/25 07:07:46;;;;;;;3.25;1.90;;;27.60;99.90;;;;;;5008875;28;20419;-74
2023/07/25 07:10:12;;;;;;;3.17;1.80;;;29.50;99.90;;;;;;5010828;28;20216;-73
2023/07/25 07:12:45;;;;;;;6.80;4.03;;;30.40;99.90;;;;;;5011972;28;20201;-73
2023/07/25 07:15:14;;;;;;;8.80;3.30;;;31.20;99.90;;;;;;5024318;28;20701;-73
2023/07/25 07:17:43;;;;;;;3.38;2.13;;;32.30;99.90;;;;;;5008638;28;20259;-74
2023/07/25 07:20:09;;;;;;;4.88;2.30;;;32.10;98.40;;;;;;5008855;28;20216;-73
2023/07/25 07:22:35;;;;;;;6.35;2.17;;;31.50;98.30;;;;;;5012797;28;20215;-73
2023/07/25 07:25:01;;;;;;;5.07;2.63;;;30.30;99.90;;;;;;5006425;28;20618;-72
2023/07/25 07:27:26;;;;;;;3.63;2.05;;;29.30;99.90;;;;;;5009763;28;20292;-73
2023/07/25 07:29:52;;;;;;;5.85;2.28;;;28.60;99.90;;;;;;5006715;28;20216;-72
2023/07/25 07:32:18;;;;;;;3.15;1.60;;;26.90;99.90;;;;;;5006118;28;20269;-72
2023/07/25 07:34:44;;;;;;;3.97;1.55;;;26.00;99.90;;;;;;5012212;28;20562;-73
2023/07/25 07:37:10;;;;;;;5.07;2.35;;;26.60;99.90;;;;;;5006622;28;20244;-72
2023/07/25 07:39:37;;;;;;;4.57;1.80;;;28.70;99.90;;;;;;5004882;28;20216;-74
2023/07/25 07:42:03;;;;;;;3.42;1.42;;;29.30;99.90;;;;;;5000952;28;20219;-73
2023/07/25 07:44:29;;;;;;;3.28;1.73;;;30.30;99.90;;;;;;5011435;28;20295;-74
2023/07/25 07:46:55;;;;;;;5.00;1.70;;;31.30;99.10;;;;;;5011143;28;20284;-74
2023/07/25 07:49:21;;;;;;;4.15;1.63;;;30.70;98.30;;;;;;5010391;28;20194;-72
2023/07/25 07:51:46;;;;;;;3.05;1.70;;;29.10;99.60;;;;;;5023886;28;20212;-72
2023/07/25 07:54:12;;;;;;;3.25;1.58;;;27.90;99.90;;;;;;5007966;28;20205;-72
2023/07/25 07:56:37;;;;;;;5.95;2.00;;;28.00;99.90;;;;;;5022261;28;20217;-73
2023/07/25 07:59:03;;;;;;;4.75;1.60;;;27.80;99.90;;;;;;5012243;28;20232;-73
2023/07/25 08:01:29;;;;;;;2.42;1.40;;;28.40;99.90;;;;;;5005900;28;20263;-73
2023/07/25 08:03:54;;;;;;;3.70;1.63;;;29.50;99.90;;;;;;5019710;28;20330;-73
2023/07/25 08:06:20;;;;;;;4.47;1.75;;;31.10;98.40;;;;;;5004091;28;20216;-74
2023/07/25 08:08:46;;;;;;;2.92;1.10;;;31.80;96.30;;;;;;5008298;28;20296;-73
2023/07/25 08:11:11;;;;;;;3.20;1.55;;;32.10;94.20;;;;;;5000937;28;20233;-74
2023/07/25 08:13:37;;;;;;;3.22;1.55;;;31.20;95.00;;;;;;5024878;28;20174;-73
2023/07/25 08:16:03;;;;;;;4.63;1.88;;;30.00;94.90;;;;;;5003420;28;20221;-73
2023/07/25 08:18:28;;;;;;;2.83;1.75;;;29.20;97.40;;;;;;5016842;28;20217;-73
2023/07/25 08:20:56;;;;;;;4.75;1.65;;;29.50;97.20;;;;;;5008035;28;20197;-74
2023/07/25 08:23:22;;;;;;;3.63;1.23;;;30.10;96.90;;;;;;5010028;28;20224;-73
2023/07/25 08:25:48;;;;;;;3.90;2.05;;;30.60;95.30;;;;;;5011289;28;20288;-74
2023/07/25 08:28:14;;;;;;;5.38;1.80;;;30.20;95.30;;;;;;5022870;28;20213;-72
2023/07/25 08:30:39;;;;;;;3.28;1.70;;;30.30;95.10;;;;;;5022009;28;20252;-74
2023/07/25 08:33:05;;;;;;;8.05;2.05;;;30.60;95.20;;;;;;5021408;28;20258;-72
2023/07/25 08:35:30;;;;;;;3.63;1.50;;;31.20;94.10;;;;;;5006656;28;20219;-74
2023/07/25 08:37:56;;;;;;;4.28;1.92;;;31.00;93.90;;;;;;5006386;28;20175;-74
2023/07/25 08:40:22;;;;;;;2.67;1.80;;;30.70;93.60;;;;;;5006953;28;20678;-74
2023/07/25 08:42:50;;;;;;;3.00;1.27;;;29.70;94.30;;;;;;5006813;28;20208;-73
2023/07/25 08:45:17;;;;;;;2.80;1.48;;;28.90;95.60;;;;;;5000925;28;20209;-73
2023/07/25 08:47:45;;;;;;;3.70;2.20;;;28.60;96.70;;;;;;5002999;28;20278;-73
2023/07/25 08:50:16;;;;;;;2.92;1.60;;;28.80;97.00;;;;;;5010691;28;20213;-71
2023/07/25 08:52:48;;;;;;;4.10;1.75;;;28.80;96.70;;;;;;5003654;28;20769;-74
2023/07/25 08:55:14;;;;;;;3.20;1.70;;;28.80;96.60;;;;;;4998308;28;20228;-72
2023/07/25 08:57:42;;;;;;;4.80;1.85;;;28.10;97.20;;;;;;5006127;28;20592;-73
2023/07/25 09:00:08;;;;;;;4.63;1.55;;;27.70;97.60;;;;;;5009052;28;20205;-73
2023/07/25 09:02:34;;;;;;;8.85;5.05;;;27.20;98.40;;;;;;5007978;28;20711;-74
2023/07/25 09:05:00;;;;;;;6.15;3.30;;;26.40;99.90;;;;;;5008578;28;20219;-73
2023/07/25 09:07:26;;;;;;;7.70;2.55;;;26.40;99.90;;;;;;5022338;28;20202;-73
2023/07/25 09:09:52;;;;;;;5.05;2.38;;;26.30;99.90;;;;;;5008646;28;20687;-72
2023/07/25 09:12:18;;;;;;;4.05;1.65;;;26.10;99.90;;;;;;5008245;28;20205;-72
2023/07/25 09:14:44;;;;;;;4.32;1.98;;;25.80;99.90;;;;;;5006200;28;20215;-73
2023/07/25 09:17:09;;;;;;;7.97;4.88;;;26.30;99.90;;;;;;5003973;28;20355;-73
2023/07/25 09:19:35;;;;;;;6.38;3.13;;;27.00;99.90;;;;;;5007788;28;20232;-73
2023/07/25 09:22:01;;;;;;;5.35;2.97;;;27.00;99.90;;;;;;5001853;28;20208;-72
2023/07/25 09:24:37;;;;;;;2.17;1.42;;;26.80;99.90;;;;;;5000480;28;20233;-73
2023/07/25 09:27:04;;;;;;;3.45;1.80;;;26.80;99.90;;;;;;5003623;28;20224;-72
2023/07/25 09:29:30;;;;;;;4.38;2.13;;;26.80;99.90;;;;;;5006481;28;20229;-73
2023/07/25 09:31:56;;;;;;;6.18;2.13;;;26.70;99.90;;;;;;5015044;28;20177;-73
2023/07/25 09:34:25;;;;;;;4.70;2.00;;;26.40;99.90;;;;;;5001810;28;20185;-73
2023/07/25 09:36:51;;;;;;;6.05;2.50;;;26.30;99.90;;;;;;5007788;28;20292;-73
2023/07/25 09:39:17;;;;;;;5.03;1.50;;;26.10;99.90;;;;;;5022349;28;20667;-71
2023/07/25 09:41:45;;;;;;;3.65;1.30;;;25.90;99.90;;;;;;5004517;28;20209;-73
2023/07/25 09:44:11;;;;;;;8.90;2.22;;;25.40;99.90;;;;;;5007151;28;20228;-73
2023/07/25 09:46:37;;;;;;;4.05;1.67;;;25.40;99.90;;;;;;5023110;28;20997;-73
2023/07/25 09:49:03;;;;;;;6.30;1.77;;;25.40;99.90;;;;;;5005975;28;20208;-73
2023/07/25 09:51:29;;;;;;;5.47;2.08;;;25.60;99.90;;;;;;5003580;28;20328;-73
2023/07/25 09:53:55;;;;;;;3.38;1.65;;;25.70;99.90;;;;;;5004820;28;20229;-73
2023/07/25 09:56:22;;;;;;;8.13;2.38;;;25.90;99.90;;;;;;5016694;28;20283;-73
2023/07/25 09:58:52;;;;;;;5.82;2.03;;;26.10;99.90;;;;;;5018800;28;20201;-73
2023/07/25 10:01:19;;;;;;;4.15;1.55;;;25.90;99.90;;;;;;4998322;28;20244;-71
2023/07/25 10:03:45;;;;;;;8.60;3.28;;;25.50;99.90;;;;;;5000482;28;20691;-73
2023/07/25 10:06:14;;;;;;;2.28;1.60;;;24.90;99.90;;;;;;4999348;28;20210;-73
2023/07/25 10:08:43;;;;;;;5.22;2.25;;;24.60;99.90;;;;;;5000781;28;20209;-73
2023/07/25 10:11:13;;;;;;;5.82;2.08;;;24.80;99.90;;;;;;5004730;28;20182;-72
2023/07/25 10:13:41;;;;;;;6.80;2.30;;;24.50;99.90;;;;;;5009745;28;20173;-72
2023/07/25 10:16:10;;;;;;;5.80;2.05;;;24.80;99.90;;;;;;5016311;28;20232;-73
2023/07/25 10:18:36;;;;;;;3.40;1.80;;;24.80;99.90;;;;;;5010270;28;20789;-73
2023/07/25 10:21:01;;;;;;;3.63;1.75;;;24.90;99.90;;;;;;5021363;28;20212;-73
2023/07/25 10:23:35;;;;;;;3.85;1.73;;;25.10;99.90;;;;;;5004475;28;20307;-73
2023/07/25 10:26:26;;;;;;;3.38;1.80;;;25.10;99.90;;;;;;5020687;28;20186;-71
2023/07/25 10:28:52;;;;;;;5.50;2.05;;;25.20;99.90;;;;;;5002120;28;20247;-73
2023/07/25 10:31:33;;;;;;;5.38;1.90;;;25.00;99.90;;;;;;5001030;28;20181;-73
2023/07/25 10:33:59;;;;;;;4.57;3.47;;;25.00;99.90;;;;;;4999042;28;20300;-73
2023/07/25 10:36:26;;;;;;;4.57;1.73;;;25.20;99.90;;;;;;4998875;28;20220;-72
2023/07/25 10:38:58;;;;;;;4.32;1.70;;;25.30;99.90;;;;;;5002173;28;20241;-73
2023/07/25 10:41:23;;;;;;;4.07;1.55;;;25.30;99.90;;;;;;4998568;28;20514;-72
2023/07/25 10:43:51;;;;;;;4.75;1.70;;;25.60;99.90;;;;;;5009022;28;20184;-73
2023/07/25 10:46:19;;;;;;;4.15;1.45;;;25.90;99.90;;;;;;4997592;28;20220;-74
2023/07/25 10:48:46;;;;;;;3.35;1.52;;;26.00;99.90;;;;;;5007563;28;20255;-73
2023/07/25 10:51:13;;;;;;;2.63;1.67;;;26.00;99.90;;;;;;5007584;28;20201;-72
2023/07/25 10:53:39;;;;;;;4.40;1.80;;;25.70;99.90;;;;;;5005948;28;20218;-72
2023/07/25 10:56:05;;;;;;;2.80;1.75;;;25.50;99.90;;;;;;5005147;28;20231;-73
2023/07/25 10:58:32;;;;;;;3.17;1.65;;;25.40;99.90;;;;;;5004741;28;20197;-73
2023/07/25 11:00:58;;;;;;;3.13;1.50;;;25.20;99.90;;;;;;5005014;28;20209;-72
2023/07/25 11:03:29;;;;;;;9.00;1.80;;;24.70;99.90;;;;;;5001376;28;20300;-72
2023/07/25 11:06:21;;;;;;;4.28;1.70;;;24.40;99.90;;;;;;5003481;28;20204;-72
2023/07/25 11:08:48;;;;;;;2.83;1.67;;;24.10;99.90;;;;;;5002683;28;20216;-72
2023/07/25 11:11:13;;;;;;;4.68;1.80;;;24.10;99.90;;;;;;5001563;28;20209;-72
2023/07/25 11:13:41;;;;;;;4.32;1.40;;;24.00;99.90;;;;;;5003950;28;20208;-73
2023/07/25 11:16:09;;;;;;;8.00;1.90;;;24.10;99.90;;;;;;5015960;28;20630;-72
2023/07/25 11:18:40;;;;;;;4.30;1.80;;;24.20;99.90;;;;;;4997892;28;20299;-73
2023/07/25 11:21:07;;;;;;;4.95;2.00;;;24.00;99.90;;;;;;4998178;28;20205;-72
2023/07/25 11:23:34;;;;;;;5.90;1.90;;;24.10;99.90;;;;;;4996216;28;20295;-72
2023/07/25 11:26:04;;;;;;;3.70;1.75;;;24.00;99.90;;;;;;5006324;28;20274;-72
2023/07/25 11:28:29;;;;;;;3.05;1.80;;;24.50;99.90;;;;;;5009438;28;20350;-72
2023/07/25 11:30:55;;;;;;;7.43;2.53;;;25.00;99.90;;;;;;5006448;28;20283;-73
2023/07/25 11:33:22;;;;;;;2.95;1.65;;;25.50;99.90;;;;;;5005247;28;20675;-72
2023/07/25 11:35:52;;;;;;;3.65;2.00;;;25.30;99.90;;;;;;5004856;28;20707;-73
2023/07/25 11:38:17;;;;;;;4.95;1.50;;;25.50;99.90;;;;;;5004626;28;20219;-73
2023/07/25 11:40:50;;;;;;;3.83;1.80;;;25.60;99.90;;;;;;5003130;28;20186;-72
2023/07/25 11:43:15;;;;;;;4.00;1.80;;;25.70;99.90;;;;;;5005558;28;20209;-72
2023/07/25 11:45:43;;;;;;;3.38;2.08;;;25.80;99.90;;;;;;5001597;28;20220;-73
2023/07/25 11:48:09;;;;;;;3.35;1.98;;;26.00;99.90;;;;;;5002353;28;21033;-72
2023/07/25 11:50:36;;;;;;;3.88;1.63;;;25.90;99.90;;;;;;4998783;28;20270;-72
2023/07/25 11:53:02;;;;;;;3.38;1.70;;;25.70;99.90;;;;;;5005369;28;20192;-72
2023/07/25 11:55:28;;;;;;;5.07;1.70;;;25.00;99.90;;;;;;5016743;28;20189;-72
2023/07/25 11:57:54;;;;;;;4.20;1.42;;;25.00;99.90;;;;;;5004091;28;20287;-73
2023/07/25 12:00:22;;;;;;;5.13;2.15;;;25.10;99.90;;;;;;5002665;28;20217;-73
2023/07/25 12:02:47;;;;;;;2.53;1.67;;;25.20;99.90;;;;;;5009892;28;20308;-72
2023/07/25 12:05:30;;;;;;;3.45;1.73;;;25.40;99.90;;;;;;5009003;28;20300;-73
2023/07/25 12:08:03;;;;;;;3.10;1.65;;;25.20;99.90;;;;;;5006695;28;20291;-73
2023/07/25 12:10:34;;;;;;;3.28;1.58;;;25.20;99.90;;;;;;5008459;28;20601;-74
2023/07/25 12:13:03;;;;;;;3.67;1.45;;;25.10;99.90;;;;;;5007872;28;20197;-73
2023/07/25 12:15:43;;;;;;;4.70;1.65;;;25.20;99.90;;;;;;5008491;28;20209;-73
2023/07/25 12:18:28;;;;;;;2.65;1.45;;;25.40;99.90;;;;;;5006767;28;20693;-73
2023/07/25 12:20:55;;;;;;;3.00;1.80;;;25.40;99.90;;;;;;5006011;28;20205;-73
2023/07/25 12:23:30;;;;;;;5.38;1.42;;;25.50;99.90;;;;;;5004991;28;20707;-73
2023/07/25 12:25:56;;;;;;;7.30;1.77;;;25.60;99.90;;;;;;5005172;28;20191;-73
2023/07/25 12:28:23;;;;;;;2.55;1.90;;;25.70;99.90;;;;;;5003225;28;20208;-73
2023/07/25 12:30:48;;;;;;;3.70;1.63;;;25.80;99.90;;;;;;5001912;28;20221;-73
2023/07/25 12:33:14;;;;;;;2.28;1.60;;;25.90;99.90;;;;;;5002368;28;20223;-72
2023/07/25 12:35:40;;;;;;;3.53;2.35;;;26.00;99.90;;;;;;5000784;28;20272;-73
2023/07/25 12:38:06;;;;;;;3.75;1.60;;;25.80;99.90;;;;;;5008026;28;20184;-72
2023/07/25 12:40:31;;;;;;;2.85;1.63;;;25.70;99.90;;;;;;5012558;28;20205;-73
2023/07/25 12:42:57;;;;;;;3.13;1.50;;;25.50;99.90;;;;;;5015513;28;20216;-73